sensor_id;sensor_type;location;lat;lon;timestamp;temperature;humidity
28193;DHT22;15473;50.840;3.396;2022-09-25T00:00:11;11.10;99.90
28193;DHT22;15473;50.840;3.396;2022-09-25T00:02:48;11.00;99.90
28193;DHT22;15473;50.840;3.396;2022-09-25T00:05:18;11.00;99.90
28193;DHT22;15473;50.840;3.396;2022-09-25T00:07:48;11.00;99.90
28193;DHT22;15473;50.840;3.396;2022-09-25T00:10:24;11.00;99.90
28193;DHT22;15473;50.840;3.396;2022-09-25T00:12:56;11.00;99.90
28193;DHT22;15473;50.840;3.396;2022-09-25T00:15:33;11.00;99.90
28193;DHT22;15473;50.840;3.396;2022-09-25T00:18:05;11.10;99.90
28193;DHT22;15473;50.840;3.396;2022-09-25T00:20:35;11.20;99.90
28193;DHT22;15473;50.840;3.396;2022-09-25T00:23:05;11.20;99.90
28193;DHT22;15473;50.840;3.396;2022-09-25T00:25:37;11.10;99.90
28193;DHT22;15473;50.840;3.396;2022-09-25T00:28:07;11.10;99.90
28193;DHT22;15473;50.840;3.396;2022-09-25T00:30:39;11.00;99.90
28193;DHT22;15473;50.840;3.396;2022-09-25T00:33:09;10.90;99.90
28193;DHT22;15473;50.840;3.396;2022-09-25T00:35:39;10.90;99.90
28193;DHT22;15473;50.840;3.396;2022-09-25T00:38:09;10.90;99.90
28193;DHT22;15473;50.840;3.396;2022-09-25T00:40:39;10.80;99.90
28193;DHT22;15473;50.840;3.396;2022-09-25T00:43:14;10.80;99.90
28193;DHT22;15473;50.840;3.396;2022-09-25T00:45:46;10.70;99.90
28193;DHT22;15473;50.840;3.396;2022-09-25T00:48:16;10.70;99.90
28193;DHT22;15473;50.840;3.396;2022-09-25T00:50:51;10.70;99.90
28193;DHT22;15473;50.840;3.396;2022-09-25T00:53:31;10.70;99.90
28193;DHT22;15473;50.840;3.396;2022-09-25T00:56:10;10.70;99.90
28193;DHT22;15473;50.840;3.396;2022-09-25T00:58:41;10.70;99.90
28193;DHT22;15473;50.840;3.396;2022-09-25T01:01:18;10.70;99.90
28193;DHT22;15473;50.840;3.396;2022-09-25T01:03:50;10.70;99.90
28193;DHT22;15473;50.840;3.396;2022-09-25T01:06:21;10.60;99.90
28193;DHT22;15473;50.840;3.396;2022-09-25T01:08:52;10.60;99.90
28193;DHT22;15473;50.840;3.396;2022-09-25T01:11:29;10.60;99.90
28193;DHT22;15473;50.840;3.396;2022-09-25T01:17:01;10.60;99.90
28193;DHT22;15473;50.840;3.396;2022-09-25T01:25:40;10.60;99.90
28193;DHT22;15473;50.840;3.396;2022-09-25T01:28:35;10.70;99.90
28193;DHT22;15473;50.840;3.396;2022-09-25T01:31:23;10.60;99.90
28193;DHT22;15473;50.840;3.396;2022-09-25T01:33:50;10.60;99.90
28193;DHT22;15473;50.840;3.396;2022-09-25T01:36:28;10.60;99.90
28193;DHT22;15473;50.840;3.396;2022-09-25T01:39:07;10.80;99.90
28193;DHT22;15473;50.840;3.396;2022-09-25T01:41:45;10.80;99.90
28193;DHT22;15473;50.840;3.396;2022-09-25T01:44:16;10.90;99.90
28193;DHT22;15473;50.840;3.396;2022-09-25T01:46:54;10.90;99.90
28193;DHT22;15473;50.840;3.396;2022-09-25T01:49:30;11.00;99.90
28193;DHT22;15473;50.840;3.396;2022-09-25T01:52:05;11.10;99.90
28193;DHT22;15473;50.840;3.396;2022-09-25T01:54:40;11.00;99.90
28193;DHT22;15473;50.840;3.396;2022-09-25T01:57:26;11.10;99.90
28193;DHT22;15473;50.840;3.396;2022-09-25T02:00:11;11.00;99.90
28193;DHT22;15473;50.840;3.396;2022-09-25T02:02:45;11.00;99.90
28193;DHT22;15473;50.840;3.396;2022-09-25T02:05:22;11.10;99.90
28193;DHT22;15473;50.840;3.396;2022-09-25T02:08:08;11.10;99.90
28193;DHT22;15473;50.840;3.396;2022-09-25T02:10:43;11.00;99.90
28193;DHT22;15473;50.840;3.396;2022-09-25T02:13:16;10.90;99.90
28193;DHT22;15473;50.840;3.396;2022-09-25T02:16:01;10.90;99.90
28193;DHT22;15473;50.840;3.396;2022-09-25T02:18:27;10.80;99.90
28193;DHT22;15473;50.840;3.396;2022-09-25T02:21:39;10.70;99.90
28193;DHT22;15473;50.840;3.396;2022-09-25T02:26:42;10.70;99.90
28193;DHT22;15473;50.840;3.396;2022-09-25T02:29:19;10.60;99.90
28193;DHT22;15473;50.840;3.396;2022-09-25T02:31:55;10.60;99.90
28193;DHT22;15473;50.840;3.396;2022-09-25T02:34:25;10.60;99.90
28193;DHT22;15473;50.840;3.396;2022-09-25T02:36:55;10.50;99.90
28193;DHT22;15473;50.840;3.396;2022-09-25T02:39:28;10.50;99.90
28193;DHT22;15473;50.840;3.396;2022-09-25T02:42:31;10.40;99.90
28193;DHT22;15473;50.840;3.396;2022-09-25T02:48:14;10.20;99.90
28193;DHT22;15473;50.840;3.396;2022-09-25T02:53:38;10.10;99.90
28193;DHT22;15473;50.840;3.396;2022-09-25T02:56:27;10.00;99.90
28193;DHT22;15473;50.840;3.396;2022-09-25T02:59:01;10.00;99.90
28193;DHT22;15473;50.840;3.396;2022-09-25T03:01:35;10.10;99.90
28193;DHT22;15473;50.840;3.396;2022-09-25T03:04:10;10.10;99.90
28193;DHT22;15473;50.840;3.396;2022-09-25T03:06:41;10.10;99.90
28193;DHT22;15473;50.840;3.396;2022-09-25T03:09:13;10.20;99.90
28193;DHT22;15473;50.840;3.396;2022-09-25T03:11:46;10.10;99.90
28193;DHT22;15473;50.840;3.396;2022-09-25T03:14:16;10.10;99.90
28193;DHT22;15473;50.840;3.396;2022-09-25T03:16:55;10.10;99.90
28193;DHT22;15473;50.840;3.396;2022-09-25T03:19:27;10.00;99.90
28193;DHT22;15473;50.840;3.396;2022-09-25T03:21:57;10.00;99.90
28193;DHT22;15473;50.840;3.396;2022-09-25T03:24:41;9.90;99.90
28193;DHT22;15473;50.840;3.396;2022-09-25T03:27:15;9.90;99.90
28193;DHT22;15473;50.840;3.396;2022-09-25T03:29:51;9.80;99.90
28193;DHT22;15473;50.840;3.396;2022-09-25T03:32:29;9.80;99.90
28193;DHT22;15473;50.840;3.396;2022-09-25T03:34:59;9.80;99.90
28193;DHT22;15473;50.840;3.396;2022-09-25T03:37:29;9.80;99.90
28193;DHT22;15473;50.840;3.396;2022-09-25T03:40:00;9.80;99.90
28193;DHT22;15473;50.840;3.396;2022-09-25T03:42:30;9.80;99.90
28193;DHT22;15473;50.840;3.396;2022-09-25T03:45:00;9.80;99.90
28193;DHT22;15473;50.840;3.396;2022-09-25T03:47:30;9.80;99.90
28193;DHT22;15473;50.840;3.396;2022-09-25T03:50:02;9.80;99.90
28193;DHT22;15473;50.840;3.396;2022-09-25T03:52:32;9.70;99.90
28193;DHT22;15473;50.840;3.396;2022-09-25T03:55:08;9.70;99.90
28193;DHT22;15473;50.840;3.396;2022-09-25T03:57:39;9.70;99.90
28193;DHT22;15473;50.840;3.396;2022-09-25T04:00:10;9.70;99.90
28193;DHT22;15473;50.840;3.396;2022-09-25T04:02:47;9.70;99.90
28193;DHT22;15473;50.840;3.396;2022-09-25T04:05:19;9.70;99.90
28193;DHT22;15473;50.840;3.396;2022-09-25T04:07:56;9.70;99.90
28193;DHT22;15473;50.840;3.396;2022-09-25T04:10:28;9.60;99.90
28193;DHT22;15473;50.840;3.396;2022-09-25T04:13:05;9.50;99.90
28193;DHT22;15473;50.840;3.396;2022-09-25T04:15:36;9.50;99.90
28193;DHT22;15473;50.840;3.396;2022-09-25T04:18:08;9.50;99.90
28193;DHT22;15473;50.840;3.396;2022-09-25T04:20:39;9.60;99.90
28193;DHT22;15473;50.840;3.396;2022-09-25T04:23:11;9.60;99.90
28193;DHT22;15473;50.840;3.396;2022-09-25T04:25:45;9.60;99.90
28193;DHT22;15473;50.840;3.396;2022-09-25T04:28:16;9.70;99.90
28193;DHT22;15473;50.840;3.396;2022-09-25T04:30:46;9.70;99.90
28193;DHT22;15473;50.840;3.396;2022-09-25T04:33:17;9.70;99.90
28193;DHT22;15473;50.840;3.396;2022-09-25T04:36:13;9.60;99.90
28193;DHT22;15473;50.840;3.396;2022-09-25T04:38:50;9.70;99.90
28193;DHT22;15473;50.840;3.396;2022-09-25T04:41:20;9.60;99.90
28193;DHT22;15473;50.840;3.396;2022-09-25T04:43:57;9.60;99.90
28193;DHT22;15473;50.840;3.396;2022-09-25T04:46:27;9.60;99.90
28193;DHT22;15473;50.840;3.396;2022-09-25T04:49:06;9.70;99.90
28193;DHT22;15473;50.840;3.396;2022-09-25T04:51:36;9.70;99.90
28193;DHT22;15473;50.840;3.396;2022-09-25T04:54:19;9.80;99.90
28193;DHT22;15473;50.840;3.396;2022-09-25T04:56:53;9.80;99.90
28193;DHT22;15473;50.840;3.396;2022-09-25T04:59:29;9.90;99.90
28193;DHT22;15473;50.840;3.396;2022-09-25T05:01:59;9.90;99.90
28193;DHT22;15473;50.840;3.396;2022-09-25T05:04:29;9.90;99.90
28193;DHT22;15473;50.840;3.396;2022-09-25T05:07:06;9.90;99.90
28193;DHT22;15473;50.840;3.396;2022-09-25T05:09:36;9.80;99.90
28193;DHT22;15473;50.840;3.396;2022-09-25T05:12:13;9.80;99.90
28193;DHT22;15473;50.840;3.396;2022-09-25T05:14:47;9.80;99.90
28193;DHT22;15473;50.840;3.396;2022-09-25T05:17:17;9.80;99.90
28193;DHT22;15473;50.840;3.396;2022-09-25T05:19:51;9.80;99.90
28193;DHT22;15473;50.840;3.396;2022-09-25T05:22:27;9.80;99.90
28193;DHT22;15473;50.840;3.396;2022-09-25T05:24:59;9.80;99.90
28193;DHT22;15473;50.840;3.396;2022-09-25T05:27:29;9.80;99.90
28193;DHT22;15473;50.840;3.396;2022-09-25T05:32:58;9.60;99.90
28193;DHT22;15473;50.840;3.396;2022-09-25T05:35:31;9.60;99.90
28193;DHT22;15473;50.840;3.396;2022-09-25T05:38:07;9.50;99.90
28193;DHT22;15473;50.840;3.396;2022-09-25T05:40:39;9.50;99.90
28193;DHT22;15473;50.840;3.396;2022-09-25T05:43:13;9.60;99.90
28193;DHT22;15473;50.840;3.396;2022-09-25T05:45:44;9.60;99.90
28193;DHT22;15473;50.840;3.396;2022-09-25T05:48:20;9.80;99.90
28193;DHT22;15473;50.840;3.396;2022-09-25T05:50:54;9.90;99.90
28193;DHT22;15473;50.840;3.396;2022-09-25T05:53:25;10.10;99.90
28193;DHT22;15473;50.840;3.396;2022-09-25T05:55:58;10.10;99.90
28193;DHT22;15473;50.840;3.396;2022-09-25T05:58:32;10.10;99.90
28193;DHT22;15473;50.840;3.396;2022-09-25T06:01:08;10.20;99.90
28193;DHT22;15473;50.840;3.396;2022-09-25T06:03:39;10.30;99.90
28193;DHT22;15473;50.840;3.396;2022-09-25T06:06:10;10.40;99.90
28193;DHT22;15473;50.840;3.396;2022-09-25T06:08:40;10.50;99.90
28193;DHT22;15473;50.840;3.396;2022-09-25T06:11:10;10.50;99.90
28193;DHT22;15473;50.840;3.396;2022-09-25T06:13:42;10.40;99.90
28193;DHT22;15473;50.840;3.396;2022-09-25T06:16:15;10.40;99.90
28193;DHT22;15473;50.840;3.396;2022-09-25T06:18:47;10.40;99.90
28193;DHT22;15473;50.840;3.396;2022-09-25T06:21:17;10.50;99.90
28193;DHT22;15473;50.840;3.396;2022-09-25T06:23:50;10.60;99.90
28193;DHT22;15473;50.840;3.396;2022-09-25T06:26:28;10.60;99.90
28193;DHT22;15473;50.840;3.396;2022-09-25T06:28:58;10.70;99.90
28193;DHT22;15473;50.840;3.396;2022-09-25T06:31:29;10.70;99.90
28193;DHT22;15473;50.840;3.396;2022-09-25T06:33:59;10.80;99.90
28193;DHT22;15473;50.840;3.396;2022-09-25T06:36:36;10.80;99.90
28193;DHT22;15473;50.840;3.396;2022-09-25T06:39:06;10.70;99.90
28193;DHT22;15473;50.840;3.396;2022-09-25T06:41:36;10.80;99.90
28193;DHT22;15473;50.840;3.396;2022-09-25T06:44:06;10.80;99.90
28193;DHT22;15473;50.840;3.396;2022-09-25T06:46:37;10.80;99.90
28193;DHT22;15473;50.840;3.396;2022-09-25T06:49:20;10.90;99.90
28193;DHT22;15473;50.840;3.396;2022-09-25T06:51:50;11.00;99.90
28193;DHT22;15473;50.840;3.396;2022-09-25T06:54:20;11.10;99.90
28193;DHT22;15473;50.840;3.396;2022-09-25T06:56:56;11.30;99.90
28193;DHT22;15473;50.840;3.396;2022-09-25T06:59:26;11.40;99.90
28193;DHT22;15473;50.840;3.396;2022-09-25T07:01:57;11.50;99.90
28193;DHT22;15473;50.840;3.396;2022-09-25T07:04:40;11.60;99.90
28193;DHT22;15473;50.840;3.396;2022-09-25T07:07:10;11.80;99.90
28193;DHT22;15473;50.840;3.396;2022-09-25T07:09:41;12.10;99.90
28193;DHT22;15473;50.840;3.396;2022-09-25T07:12:11;12.70;99.90
28193;DHT22;15473;50.840;3.396;2022-09-25T07:14:48;13.30;99.90
28193;DHT22;15473;50.840;3.396;2022-09-25T07:17:25;14.20;99.90
28193;DHT22;15473;50.840;3.396;2022-09-25T07:20:01;15.50;99.90
28193;DHT22;15473;50.840;3.396;2022-09-25T07:22:33;16.60;99.90
28193;DHT22;15473;50.840;3.396;2022-09-25T07:25:03;17.10;99.90
28193;DHT22;15473;50.840;3.396;2022-09-25T07:27:34;17.00;99.90
28193;DHT22;15473;50.840;3.396;2022-09-25T07:30:07;16.50;99.90
28193;DHT22;15473;50.840;3.396;2022-09-25T07:32:37;16.00;99.90
28193;DHT22;15473;50.840;3.396;2022-09-25T07:35:07;15.40;99.90
28193;DHT22;15473;50.840;3.396;2022-09-25T07:37:43;14.80;99.90
28193;DHT22;15473;50.840;3.396;2022-09-25T07:40:13;14.40;99.90
28193;DHT22;15473;50.840;3.396;2022-09-25T07:42:51;14.10;99.90
28193;DHT22;15473;50.840;3.396;2022-09-25T07:45:23;13.90;99.90
28193;DHT22;15473;50.840;3.396;2022-09-25T07:48:01;13.80;99.90
28193;DHT22;15473;50.840;3.396;2022-09-25T07:50:37;13.70;99.90
28193;DHT22;15473;50.840;3.396;2022-09-25T07:53:07;13.70;99.90
28193;DHT22;15473;50.840;3.396;2022-09-25T07:55:37;13.60;99.90
28193;DHT22;15473;50.840;3.396;2022-09-25T07:58:14;13.60;99.90
28193;DHT22;15473;50.840;3.396;2022-09-25T08:00:53;13.70;99.90
28193;DHT22;15473;50.840;3.396;2022-09-25T08:03:25;13.80;99.90
28193;DHT22;15473;50.840;3.396;2022-09-25T08:06:06;13.80;99.90
28193;DHT22;15473;50.840;3.396;2022-09-25T08:08:44;13.90;99.90
28193;DHT22;15473;50.840;3.396;2022-09-25T08:11:16;14.10;99.90
28193;DHT22;15473;50.840;3.396;2022-09-25T08:13:46;14.40;99.90
28193;DHT22;15473;50.840;3.396;2022-09-25T08:16:18;14.70;99.90
28193;DHT22;15473;50.840;3.396;2022-09-25T08:18:54;14.90;99.90
28193;DHT22;15473;50.840;3.396;2022-09-25T08:21:24;15.10;99.90
28193;DHT22;15473;50.840;3.396;2022-09-25T08:23:58;15.20;99.90
28193;DHT22;15473;50.840;3.396;2022-09-25T08:26:29;15.30;99.90
28193;DHT22;15473;50.840;3.396;2022-09-25T08:29:02;15.40;99.90
28193;DHT22;15473;50.840;3.396;2022-09-25T08:31:33;15.30;99.90
28193;DHT22;15473;50.840;3.396;2022-09-25T08:34:03;15.10;99.90
28193;DHT22;15473;50.840;3.396;2022-09-25T08:36:39;14.90;99.90
28193;DHT22;15473;50.840;3.396;2022-09-25T08:39:10;14.80;99.90
28193;DHT22;15473;50.840;3.396;2022-09-25T08:41:49;14.60;99.90
28193;DHT22;15473;50.840;3.396;2022-09-25T08:44:25;14.50;99.90
28193;DHT22;15473;50.840;3.396;2022-09-25T08:47:04;14.50;99.90
28193;DHT22;15473;50.840;3.396;2022-09-25T08:52:42;14.50;99.90
28193;DHT22;15473;50.840;3.396;2022-09-25T08:58:29;14.60;99.90
28193;DHT22;15473;50.840;3.396;2022-09-25T09:01:00;14.60;99.90
28193;DHT22;15473;50.840;3.396;2022-09-25T09:03:32;14.70;99.90
28193;DHT22;15473;50.840;3.396;2022-09-25T09:06:06;14.80;99.90
28193;DHT22;15473;50.840;3.396;2022-09-25T09:08:38;14.90;99.90
28193;DHT22;15473;50.840;3.396;2022-09-25T09:11:32;14.90;99.90
28193;DHT22;15473;50.840;3.396;2022-09-25T09:17:04;15.50;99.90
28193;DHT22;15473;50.840;3.396;2022-09-25T09:19:30;15.90;99.90
28193;DHT22;15473;50.840;3.396;2022-09-25T09:22:09;16.00;99.90
28193;DHT22;15473;50.840;3.396;2022-09-25T09:25:08;16.10;99.90
28193;DHT22;15473;50.840;3.396;2022-09-25T09:28:08;16.30;99.90
28193;DHT22;15473;50.840;3.396;2022-09-25T09:30:47;16.30;99.90
28193;DHT22;15473;50.840;3.396;2022-09-25T09:36:25;16.10;99.90
28193;DHT22;15473;50.840;3.396;2022-09-25T09:39:18;15.90;99.90
28193;DHT22;15473;50.840;3.396;2022-09-25T09:42:10;15.70;99.90
28193;DHT22;15473;50.840;3.396;2022-09-25T09:45:02;15.60;99.90
28193;DHT22;15473;50.840;3.396;2022-09-25T09:47:50;15.40;99.90
28193;DHT22;15473;50.840;3.396;2022-09-25T09:50:46;15.30;99.90
28193;DHT22;15473;50.840;3.396;2022-09-25T09:56:17;15.10;99.90
28193;DHT22;15473;50.840;3.396;2022-09-25T09:58:54;15.10;99.90
28193;DHT22;15473;50.840;3.396;2022-09-25T10:01:27;15.10;99.90
28193;DHT22;15473;50.840;3.396;2022-09-25T10:04:09;15.10;99.90
28193;DHT22;15473;50.840;3.396;2022-09-25T10:06:48;15.20;99.90
28193;DHT22;15473;50.840;3.396;2022-09-25T10:09:18;15.20;99.90
28193;DHT22;15473;50.840;3.396;2022-09-25T10:11:53;15.20;99.90
28193;DHT22;15473;50.840;3.396;2022-09-25T10:14:23;15.20;99.90
28193;DHT22;15473;50.840;3.396;2022-09-25T10:16:55;15.30;99.90
28193;DHT22;15473;50.840;3.396;2022-09-25T10:19:27;15.40;99.90
28193;DHT22;15473;50.840;3.396;2022-09-25T10:22:12;15.40;99.90
28193;DHT22;15473;50.840;3.396;2022-09-25T10:24:47;15.40;99.90
28193;DHT22;15473;50.840;3.396;2022-09-25T10:27:38;15.50;99.90
28193;DHT22;15473;50.840;3.396;2022-09-25T10:30:23;15.60;99.90
28193;DHT22;15473;50.840;3.396;2022-09-25T10:33:01;15.70;99.90
28193;DHT22;15473;50.840;3.396;2022-09-25T10:46:43;17.20;99.90
28193;DHT22;15473;50.840;3.396;2022-09-25T10:49:31;17.40;99.90
28193;DHT22;15473;50.840;3.396;2022-09-25T10:52:20;17.50;99.90
28193;DHT22;15473;50.840;3.396;2022-09-25T10:54:57;17.50;99.90
28193;DHT22;15473;50.840;3.396;2022-09-25T10:57:28;17.40;99.90
28193;DHT22;15473;50.840;3.396;2022-09-25T10:59:59;17.30;99.90
28193;DHT22;15473;50.840;3.396;2022-09-25T11:05:29;16.90;99.90
28193;DHT22;15473;50.840;3.396;2022-09-25T11:08:02;16.80;99.90
28193;DHT22;15473;50.840;3.396;2022-09-25T11:10:35;16.90;99.90
28193;DHT22;15473;50.840;3.396;2022-09-25T11:13:16;17.00;99.90
28193;DHT22;15473;50.840;3.396;2022-09-25T11:15:46;17.10;99.90
28193;DHT22;15473;50.840;3.396;2022-09-25T11:21:19;17.40;99.90
28193;DHT22;15473;50.840;3.396;2022-09-25T11:24:12;17.70;99.90
28193;DHT22;15473;50.840;3.396;2022-09-25T11:26:20;17.80;99.90
28193;DHT22;15473;50.840;3.396;2022-09-25T11:29:04;17.90;99.90
28193;DHT22;15473;50.840;3.396;2022-09-25T11:32:04;18.00;99.90
28193;DHT22;15473;50.840;3.396;2022-09-25T11:43:09;17.80;99.90
28193;DHT22;15473;50.840;3.396;2022-09-25T11:45:50;17.90;99.90
28193;DHT22;15473;50.840;3.396;2022-09-25T11:56:55;17.80;99.90
28193;DHT22;15473;50.840;3.396;2022-09-25T12:00:10;17.60;99.90
28193;DHT22;15473;50.840;3.396;2022-09-25T12:31:27;17.60;99.90
28193;DHT22;15473;50.840;3.396;2022-09-25T12:37:07;17.70;99.90
28193;DHT22;15473;50.840;3.396;2022-09-25T12:42:59;17.50;99.90
28193;DHT22;15473;50.840;3.396;2022-09-25T12:45:46;17.40;99.90
28193;DHT22;15473;50.840;3.396;2022-09-25T12:53:43;17.10;99.90
28193;DHT22;15473;50.840;3.396;2022-09-25T13:07:32;16.80;99.90
28193;DHT22;15473;50.840;3.396;2022-09-25T13:10:02;16.90;99.90
28193;DHT22;15473;50.840;3.396;2022-09-25T13:12:37;17.00;99.90
28193;DHT22;15473;50.840;3.396;2022-09-25T13:15:20;17.10;99.90
28193;DHT22;15473;50.840;3.396;2022-09-25T13:17:51;17.30;99.90
28193;DHT22;15473;50.840;3.396;2022-09-25T13:23:36;17.60;99.90
28193;DHT22;15473;50.840;3.396;2022-09-25T13:26:17;17.70;99.90
28193;DHT22;15473;50.840;3.396;2022-09-25T13:28:54;17.80;99.90
28193;DHT22;15473;50.840;3.396;2022-09-25T13:31:31;17.90;99.90
28193;DHT22;15473;50.840;3.396;2022-09-25T13:34:06;17.90;99.90
28193;DHT22;15473;50.840;3.396;2022-09-25T13:36:52;18.00;99.90
28193;DHT22;15473;50.840;3.396;2022-09-25T13:39:36;17.90;99.90
28193;DHT22;15473;50.840;3.396;2022-09-25T13:42:33;17.80;99.90
28193;DHT22;15473;50.840;3.396;2022-09-25T13:47:55;17.50;99.90
28193;DHT22;15473;50.840;3.396;2022-09-25T13:50:40;17.30;99.90
28193;DHT22;15473;50.840;3.396;2022-09-25T13:58:29;17.10;99.90
28193;DHT22;15473;50.840;3.396;2022-09-25T14:01:09;17.10;99.90
28193;DHT22;15473;50.840;3.396;2022-09-25T14:03:46;17.00;99.90
28193;DHT22;15473;50.840;3.396;2022-09-25T14:06:23;16.90;99.90
28193;DHT22;15473;50.840;3.396;2022-09-25T14:08:55;16.80;99.90
28193;DHT22;15473;50.840;3.396;2022-09-25T14:11:31;16.70;99.90
28193;DHT22;15473;50.840;3.396;2022-09-25T14:14:13;16.70;99.90
28193;DHT22;15473;50.840;3.396;2022-09-25T14:16:49;16.70;99.90
28193;DHT22;15473;50.840;3.396;2022-09-25T14:19:42;16.70;99.90
28193;DHT22;15473;50.840;3.396;2022-09-25T14:22:17;16.80;99.90
28193;DHT22;15473;50.840;3.396;2022-09-25T14:24:46;16.60;99.90
28193;DHT22;15473;50.840;3.396;2022-09-25T14:27:23;16.50;99.90
28193;DHT22;15473;50.840;3.396;2022-09-25T14:41:55;16.20;99.90
28193;DHT22;15473;50.840;3.396;2022-09-25T14:44:55;16.50;99.90
28193;DHT22;15473;50.840;3.396;2022-09-25T14:47:20;16.70;99.90
28193;DHT22;15473;50.840;3.396;2022-09-25T14:49:57;16.90;99.90
28193;DHT22;15473;50.840;3.396;2022-09-25T14:52:30;16.90;99.90
28193;DHT22;15473;50.840;3.396;2022-09-25T14:55:03;17.00;99.90
28193;DHT22;15473;50.840;3.396;2022-09-25T14:57:34;17.00;99.90
28193;DHT22;15473;50.840;3.396;2022-09-25T15:00:11;17.00;99.90
28193;DHT22;15473;50.840;3.396;2022-09-25T15:02:40;17.00;99.90
28193;DHT22;15473;50.840;3.396;2022-09-25T15:05:31;16.90;99.90
28193;DHT22;15473;50.840;3.396;2022-09-25T15:10:44;16.80;99.90
28193;DHT22;15473;50.840;3.396;2022-09-25T15:13:19;16.80;99.90
28193;DHT22;15473;50.840;3.396;2022-09-25T15:15:52;16.80;99.90
28193;DHT22;15473;50.840;3.396;2022-09-25T15:18:41;16.70;99.90
28193;DHT22;15473;50.840;3.396;2022-09-25T15:21:20;16.60;99.90
28193;DHT22;15473;50.840;3.396;2022-09-25T15:23:45;16.60;99.90
28193;DHT22;15473;50.840;3.396;2022-09-25T15:26:16;16.60;99.90
28193;DHT22;15473;50.840;3.396;2022-09-25T15:28:47;16.60;99.90
28193;DHT22;15473;50.840;3.396;2022-09-25T15:31:19;16.70;99.90
28193;DHT22;15473;50.840;3.396;2022-09-25T15:34:09;16.80;99.90
28193;DHT22;15473;50.840;3.396;2022-09-25T15:36:35;16.90;99.90
28193;DHT22;15473;50.840;3.396;2022-09-25T15:39:16;16.90;99.90
28193;DHT22;15473;50.840;3.396;2022-09-25T15:41:48;16.90;99.90
28193;DHT22;15473;50.840;3.396;2022-09-25T15:44:20;16.90;99.90
28193;DHT22;15473;50.840;3.396;2022-09-25T15:46:55;16.80;99.90
28193;DHT22;15473;50.840;3.396;2022-09-25T15:49:28;16.80;99.90
28193;DHT22;15473;50.840;3.396;2022-09-25T15:51:59;16.70;99.90
28193;DHT22;15473;50.840;3.396;2022-09-25T15:54:38;16.60;99.90
28193;DHT22;15473;50.840;3.396;2022-09-25T15:57:16;16.60;99.90
28193;DHT22;15473;50.840;3.396;2022-09-25T15:59:48;16.60;99.90
28193;DHT22;15473;50.840;3.396;2022-09-25T16:02:47;16.60;99.90
28193;DHT22;15473;50.840;3.396;2022-09-25T16:05:29;16.60;99.90
28193;DHT22;15473;50.840;3.396;2022-09-25T16:11:20;16.60;99.90
28193;DHT22;15473;50.840;3.396;2022-09-25T16:13:52;16.50;99.90
28193;DHT22;15473;50.840;3.396;2022-09-25T16:16:30;16.40;99.90
28193;DHT22;15473;50.840;3.396;2022-09-25T16:21:49;16.30;99.90
28193;DHT22;15473;50.840;3.396;2022-09-25T16:24:25;16.20;99.90
28193;DHT22;15473;50.840;3.396;2022-09-25T16:27:01;16.10;99.90
28193;DHT22;15473;50.840;3.396;2022-09-25T16:29:33;16.10;99.90
28193;DHT22;15473;50.840;3.396;2022-09-25T16:32:07;16.00;99.90
28193;DHT22;15473;50.840;3.396;2022-09-25T16:34:39;16.00;99.90
28193;DHT22;15473;50.840;3.396;2022-09-25T16:40:19;15.90;99.90
28193;DHT22;15473;50.840;3.396;2022-09-25T16:42:54;15.80;99.90
28193;DHT22;15473;50.840;3.396;2022-09-25T16:45:32;15.70;99.90
28193;DHT22;15473;50.840;3.396;2022-09-25T16:50:49;15.60;99.90
28193;DHT22;15473;50.840;3.396;2022-09-25T16:53:19;15.50;99.90
28193;DHT22;15473;50.840;3.396;2022-09-25T16:55:51;15.50;99.90
28193;DHT22;15473;50.840;3.396;2022-09-25T16:58:21;15.40;99.90
28193;DHT22;15473;50.840;3.396;2022-09-25T17:00:52;15.50;99.90
28193;DHT22;15473;50.840;3.396;2022-09-25T17:03:22;15.50;99.90
28193;DHT22;15473;50.840;3.396;2022-09-25T17:05:52;15.60;99.90
28193;DHT22;15473;50.840;3.396;2022-09-25T17:08:22;15.50;99.90
28193;DHT22;15473;50.840;3.396;2022-09-25T17:10:53;15.50;99.90
28193;DHT22;15473;50.840;3.396;2022-09-25T17:13:26;15.40;99.90
28193;DHT22;15473;50.840;3.396;2022-09-25T17:15:58;15.40;99.90
28193;DHT22;15473;50.840;3.396;2022-09-25T17:18:28;15.30;99.90
28193;DHT22;15473;50.840;3.396;2022-09-25T17:21:01;15.20;99.90
28193;DHT22;15473;50.840;3.396;2022-09-25T17:23:32;15.20;99.90
28193;DHT22;15473;50.840;3.396;2022-09-25T17:26:04;15.20;99.90
28193;DHT22;15473;50.840;3.396;2022-09-25T17:28:35;15.20;99.90
28193;DHT22;15473;50.840;3.396;2022-09-25T17:31:05;15.20;99.90
28193;DHT22;15473;50.840;3.396;2022-09-25T17:33:35;15.20;99.90
28193;DHT22;15473;50.840;3.396;2022-09-25T17:36:08;15.20;99.90
28193;DHT22;15473;50.840;3.396;2022-09-25T17:38:37;15.10;99.90
28193;DHT22;15473;50.840;3.396;2022-09-25T17:43:46;15.10;99.90
28193;DHT22;15473;50.840;3.396;2022-09-25T17:46:16;15.10;99.90
28193;DHT22;15473;50.840;3.396;2022-09-25T17:48:46;15.10;99.90
28193;DHT22;15473;50.840;3.396;2022-09-25T17:51:27;15.10;99.90
28193;DHT22;15473;50.840;3.396;2022-09-25T17:53:53;15.00;99.90
28193;DHT22;15473;50.840;3.396;2022-09-25T17:56:25;15.00;99.90
28193;DHT22;15473;50.840;3.396;2022-09-25T17:58:59;15.00;99.90
28193;DHT22;15473;50.840;3.396;2022-09-25T18:01:31;14.90;99.90
28193;DHT22;15473;50.840;3.396;2022-09-25T18:04:21;14.90;99.90
28193;DHT22;15473;50.840;3.396;2022-09-25T18:06:47;14.90;99.90
28193;DHT22;15473;50.840;3.396;2022-09-25T18:09:17;14.80;99.90
28193;DHT22;15473;50.840;3.396;2022-09-25T18:11:47;14.80;99.90
28193;DHT22;15473;50.840;3.396;2022-09-25T18:14:18;14.80;99.90
28193;DHT22;15473;50.840;3.396;2022-09-25T18:16:48;14.70;99.90
28193;DHT22;15473;50.840;3.396;2022-09-25T18:19:19;14.80;99.90
28193;DHT22;15473;50.840;3.396;2022-09-25T18:22:08;14.80;99.90
28193;DHT22;15473;50.840;3.396;2022-09-25T18:24:49;14.70;99.90
28193;DHT22;15473;50.840;3.396;2022-09-25T18:27:26;14.80;99.90
28193;DHT22;15473;50.840;3.396;2022-09-25T18:29:57;14.70;99.90
28193;DHT22;15473;50.840;3.396;2022-09-25T18:32:27;14.80;99.90
28193;DHT22;15473;50.840;3.396;2022-09-25T18:34:58;14.70;99.90
28193;DHT22;15473;50.840;3.396;2022-09-25T18:37:31;14.70;99.90
28193;DHT22;15473;50.840;3.396;2022-09-25T18:40:05;14.60;99.90
28193;DHT22;15473;50.840;3.396;2022-09-25T18:42:35;14.70;99.90
28193;DHT22;15473;50.840;3.396;2022-09-25T18:45:06;14.70;99.90
28193;DHT22;15473;50.840;3.396;2022-09-25T18:47:37;14.60;99.90
28193;DHT22;15473;50.840;3.396;2022-09-25T18:50:09;14.70;99.90
28193;DHT22;15473;50.840;3.396;2022-09-25T18:52:45;14.70;99.90
28193;DHT22;15473;50.840;3.396;2022-09-25T18:55:21;14.60;99.90
28193;DHT22;15473;50.840;3.396;2022-09-25T18:58:03;14.60;99.90
28193;DHT22;15473;50.840;3.396;2022-09-25T19:00:34;14.60;99.90
28193;DHT22;15473;50.840;3.396;2022-09-25T19:03:04;14.60;99.90